sensor_id;sensor_type;location;lat;lon;timestamp;temperature;humidity
52725;DHT22;38621;52.830;6.914;2023-06-04T00:01:21;12.20;99.90
52725;DHT22;38621;52.830;6.914;2023-06-04T00:03:47;12.20;99.90
52725;DHT22;38621;52.830;6.914;2023-06-04T00:06:12;12.20;99.90
52725;DHT22;38621;52.830;6.914;2023-06-04T00:08:38;12.20;99.90
52725;DHT22;38621;52.830;6.914;2023-06-04T00:11:04;12.20;99.90
52725;DHT22;38621;52.830;6.914;2023-06-04T00:13:29;12.10;99.90
52725;DHT22;38621;52.830;6.914;2023-06-04T00:15:55;12.10;99.90
52725;DHT22;38621;52.830;6.914;2023-06-04T00:18:21;12.00;99.90
52725;DHT22;38621;52.830;6.914;2023-06-04T00:20:46;12.00;99.90
52725;DHT22;38621;52.830;6.914;2023-06-04T00:23:12;12.00;99.90
52725;DHT22;38621;52.830;6.914;2023-06-04T00:25:38;11.90;99.90
52725;DHT22;38621;52.830;6.914;2023-06-04T00:28:03;11.90;99.90
52725;DHT22;38621;52.830;6.914;2023-06-04T00:30:29;11.80;99.90
52725;DHT22;38621;52.830;6.914;2023-06-04T00:32:55;11.70;99.90
52725;DHT22;38621;52.830;6.914;2023-06-04T00:35:21;11.70;99.90
52725;DHT22;38621;52.830;6.914;2023-06-04T00:37:47;11.70;99.90
52725;DHT22;38621;52.830;6.914;2023-06-04T00:40:12;11.70;99.90
52725;DHT22;38621;52.830;6.914;2023-06-04T00:42:38;11.70;99.90
52725;DHT22;38621;52.830;6.914;2023-06-04T00:45:04;11.70;99.90
52725;DHT22;38621;52.830;6.914;2023-06-04T00:47:33;11.70;99.90
52725;DHT22;38621;52.830;6.914;2023-06-04T00:49:59;11.70;99.90
52725;DHT22;38621;52.830;6.914;2023-06-04T00:52:25;11.60;99.90
52725;DHT22;38621;52.830;6.914;2023-06-04T00:54:52;11.60;99.90
52725;DHT22;38621;52.830;6.914;2023-06-04T00:57:21;11.60;99.90
52725;DHT22;38621;52.830;6.914;2023-06-04T00:59:47;11.50;99.90
52725;DHT22;38621;52.830;6.914;2023-06-04T01:02:20;11.40;99.90
52725;DHT22;38621;52.830;6.914;2023-06-04T01:04:50;11.30;99.90
52725;DHT22;38621;52.830;6.914;2023-06-04T01:07:18;11.20;99.90
52725;DHT22;38621;52.830;6.914;2023-06-04T01:09:44;11.10;99.90
52725;DHT22;38621;52.830;6.914;2023-06-04T01:12:11;11.00;99.90
52725;DHT22;38621;52.830;6.914;2023-06-04T01:14:37;10.80;99.90
52725;DHT22;38621;52.830;6.914;2023-06-04T01:17:26;10.70;99.90
52725;DHT22;38621;52.830;6.914;2023-06-04T01:27:55;10.50;99.90
52725;DHT22;38621;52.830;6.914;2023-06-04T01:30:30;10.50;99.90
52725;DHT22;38621;52.830;6.914;2023-06-04T01:32:58;10.50;99.90
52725;DHT22;38621;52.830;6.914;2023-06-04T01:35:25;10.50;99.90
52725;DHT22;38621;52.830;6.914;2023-06-04T01:37:50;10.50;99.90
52725;DHT22;38621;52.830;6.914;2023-06-04T01:40:17;10.50;99.90
52725;DHT22;38621;52.830;6.914;2023-06-04T01:42:43;10.50;99.90
52725;DHT22;38621;52.830;6.914;2023-06-04T01:45:09;10.50;99.90
52725;DHT22;38621;52.830;6.914;2023-06-04T01:47:35;10.40;99.90
52725;DHT22;38621;52.830;6.914;2023-06-04T01:50:05;10.40;99.90
52725;DHT22;38621;52.830;6.914;2023-06-04T01:52:35;10.40;99.90
52725;DHT22;38621;52.830;6.914;2023-06-04T01:55:06;10.30;99.90
52725;DHT22;38621;52.830;6.914;2023-06-04T01:57:33;10.20;99.90
52725;DHT22;38621;52.830;6.914;2023-06-04T01:59:59;10.20;99.90
52725;DHT22;38621;52.830;6.914;2023-06-04T02:02:25;10.20;99.90
52725;DHT22;38621;52.830;6.914;2023-06-04T02:04:51;10.10;99.90
52725;DHT22;38621;52.830;6.914;2023-06-04T02:07:18;10.10;99.90
52725;DHT22;38621;52.830;6.914;2023-06-04T02:09:49;10.20;99.90
52725;DHT22;38621;52.830;6.914;2023-06-04T02:12:15;10.20;99.90
52725;DHT22;38621;52.830;6.914;2023-06-04T02:14:41;10.20;99.90
52725;DHT22;38621;52.830;6.914;2023-06-04T02:17:07;10.20;99.90
52725;DHT22;38621;52.830;6.914;2023-06-04T02:19:42;10.20;99.90
52725;DHT22;38621;52.830;6.914;2023-06-04T02:22:19;10.20;99.90
52725;DHT22;38621;52.830;6.914;2023-06-04T02:24:45;10.30;99.90
52725;DHT22;38621;52.830;6.914;2023-06-04T02:27:12;10.20;99.90
52725;DHT22;38621;52.830;6.914;2023-06-04T02:29:39;10.20;99.90
52725;DHT22;38621;52.830;6.914;2023-06-04T02:32:05;10.20;99.90
52725;DHT22;38621;52.830;6.914;2023-06-04T02:34:31;10.10;99.90
52725;DHT22;38621;52.830;6.914;2023-06-04T02:36:57;10.10;99.90
52725;DHT22;38621;52.830;6.914;2023-06-04T02:39:24;10.00;99.90
52725;DHT22;38621;52.830;6.914;2023-06-04T02:41:49;10.00;99.90
52725;DHT22;38621;52.830;6.914;2023-06-04T02:44:15;10.00;99.90
52725;DHT22;38621;52.830;6.914;2023-06-04T02:46:41;10.00;99.90
52725;DHT22;38621;52.830;6.914;2023-06-04T02:49:07;10.00;99.90
52725;DHT22;38621;52.830;6.914;2023-06-04T02:51:32;10.00;99.90
52725;DHT22;38621;52.830;6.914;2023-06-04T02:53:58;10.00;99.90
52725;DHT22;38621;52.830;6.914;2023-06-04T02:56:24;10.10;99.90
52725;DHT22;38621;52.830;6.914;2023-06-04T02:58:52;10.10;99.90
52725;DHT22;38621;52.830;6.914;2023-06-04T03:01:23;10.10;99.90
52725;DHT22;38621;52.830;6.914;2023-06-04T03:03:49;10.10;99.90
52725;DHT22;38621;52.830;6.914;2023-06-04T03:06:16;10.10;99.90
52725;DHT22;38621;52.830;6.914;2023-06-04T03:08:42;10.10;99.90
52725;DHT22;38621;52.830;6.914;2023-06-04T03:11:08;10.10;99.90
52725;DHT22;38621;52.830;6.914;2023-06-04T03:13:35;10.10;99.90
52725;DHT22;38621;52.830;6.914;2023-06-04T03:16:01;10.10;99.90
52725;DHT22;38621;52.830;6.914;2023-06-04T03:18:30;10.00;99.90
52725;DHT22;38621;52.830;6.914;2023-06-04T03:20:56;10.00;99.90
52725;DHT22;38621;52.830;6.914;2023-06-04T03:23:22;10.00;99.90
52725;DHT22;38621;52.830;6.914;2023-06-04T03:25:48;9.90;99.90
52725;DHT22;38621;52.830;6.914;2023-06-04T03:28:14;10.00;99.90
52725;DHT22;38621;52.830;6.914;2023-06-04T03:30:43;10.00;99.90
52725;DHT22;38621;52.830;6.914;2023-06-04T03:33:08;10.00;99.90
52725;DHT22;38621;52.830;6.914;2023-06-04T03:35:34;10.00;99.90
52725;DHT22;38621;52.830;6.914;2023-06-04T03:38:00;10.00;99.90
52725;DHT22;38621;52.830;6.914;2023-06-04T03:40:25;10.00;99.90
52725;DHT22;38621;52.830;6.914;2023-06-04T03:42:51;9.90;99.90
52725;DHT22;38621;52.830;6.914;2023-06-04T03:45:17;10.00;99.90
52725;DHT22;38621;52.830;6.914;2023-06-04T03:47:43;9.90;99.90
52725;DHT22;38621;52.830;6.914;2023-06-04T03:50:08;9.90;99.90
52725;DHT22;38621;52.830;6.914;2023-06-04T03:52:35;9.90;99.90
52725;DHT22;38621;52.830;6.914;2023-06-04T03:55:01;9.90;99.90
52725;DHT22;38621;52.830;6.914;2023-06-04T03:57:27;9.90;99.90
52725;DHT22;38621;52.830;6.914;2023-06-04T03:59:52;10.00;99.90
52725;DHT22;38621;52.830;6.914;2023-06-04T04:02:18;10.00;99.90
52725;DHT22;38621;52.830;6.914;2023-06-04T04:04:44;10.00;99.90
52725;DHT22;38621;52.830;6.914;2023-06-04T04:07:10;10.00;99.90
52725;DHT22;38621;52.830;6.914;2023-06-04T04:09:36;10.00;99.90
52725;DHT22;38621;52.830;6.914;2023-06-04T04:12:05;10.00;99.90
52725;DHT22;38621;52.830;6.914;2023-06-04T04:14:31;10.10;99.90
52725;DHT22;38621;52.830;6.914;2023-06-04T04:16:57;10.10;99.90
52725;DHT22;38621;52.830;6.914;2023-06-04T04:19:22;10.10;99.90
52725;DHT22;38621;52.830;6.914;2023-06-04T04:21:48;10.20;99.90
52725;DHT22;38621;52.830;6.914;2023-06-04T04:24:24;10.30;99.90
52725;DHT22;38621;52.830;6.914;2023-06-04T04:26:50;10.30;99.90
52725;DHT22;38621;52.830;6.914;2023-06-04T04:29:22;10.30;99.90
52725;DHT22;38621;52.830;6.914;2023-06-04T04:31:50;10.30;99.90
52725;DHT22;38621;52.830;6.914;2023-06-04T04:34:16;10.40;99.90
52725;DHT22;38621;52.830;6.914;2023-06-04T04:36:43;10.40;99.90
52725;DHT22;38621;52.830;6.914;2023-06-04T04:39:10;10.50;99.90
52725;DHT22;38621;52.830;6.914;2023-06-04T04:41:37;10.60;99.90
52725;DHT22;38621;52.830;6.914;2023-06-04T04:44:04;10.70;99.90
52725;DHT22;38621;52.830;6.914;2023-06-04T04:46:30;10.70;99.90
52725;DHT22;38621;52.830;6.914;2023-06-04T04:48:56;10.80;99.90
52725;DHT22;38621;52.830;6.914;2023-06-04T04:51:22;10.90;99.90
52725;DHT22;38621;52.830;6.914;2023-06-04T04:53:48;11.00;99.90
52725;DHT22;38621;52.830;6.914;2023-06-04T04:56:14;11.20;99.90
52725;DHT22;38621;52.830;6.914;2023-06-04T04:58:40;11.20;99.90
52725;DHT22;38621;52.830;6.914;2023-06-04T05:01:05;11.30;99.90
52725;DHT22;38621;52.830;6.914;2023-06-04T05:03:31;11.40;99.90
52725;DHT22;38621;52.830;6.914;2023-06-04T05:05:57;11.50;99.90
52725;DHT22;38621;52.830;6.914;2023-06-04T05:08:22;11.60;99.90
52725;DHT22;38621;52.830;6.914;2023-06-04T05:10:50;11.70;99.90
52725;DHT22;38621;52.830;6.914;2023-06-04T05:13:16;11.80;99.90
52725;DHT22;38621;52.830;6.914;2023-06-04T05:15:41;11.90;99.90
52725;DHT22;38621;52.830;6.914;2023-06-04T05:18:08;12.00;99.90
52725;DHT22;38621;52.830;6.914;2023-06-04T05:20:34;12.10;99.90
52725;DHT22;38621;52.830;6.914;2023-06-04T05:23:03;12.20;99.90
52725;DHT22;38621;52.830;6.914;2023-06-04T05:25:29;12.30;99.90
52725;DHT22;38621;52.830;6.914;2023-06-04T05:27:58;12.40;99.90
52725;DHT22;38621;52.830;6.914;2023-06-04T05:30:24;12.50;99.90
52725;DHT22;38621;52.830;6.914;2023-06-04T05:32:50;12.50;99.90
52725;DHT22;38621;52.830;6.914;2023-06-04T05:35:16;12.60;99.90
52725;DHT22;38621;52.830;6.914;2023-06-04T05:37:42;12.70;99.90
52725;DHT22;38621;52.830;6.914;2023-06-04T05:40:08;12.80;99.90
52725;DHT22;38621;52.830;6.914;2023-06-04T05:42:35;12.90;99.90
52725;DHT22;38621;52.830;6.914;2023-06-04T05:45:01;13.00;99.90
52725;DHT22;38621;52.830;6.914;2023-06-04T05:47:27;13.10;99.90
52725;DHT22;38621;52.830;6.914;2023-06-04T05:49:57;13.20;99.90
52725;DHT22;38621;52.830;6.914;2023-06-04T05:52:23;13.20;99.90
52725;DHT22;38621;52.830;6.914;2023-06-04T05:54:49;13.30;99.90
52725;DHT22;38621;52.830;6.914;2023-06-04T05:57:14;13.40;99.90
52725;DHT22;38621;52.830;6.914;2023-06-04T05:59:40;13.50;99.90
52725;DHT22;38621;52.830;6.914;2023-06-04T06:02:06;13.60;99.90
52725;DHT22;38621;52.830;6.914;2023-06-04T06:04:32;13.70;99.90
52725;DHT22;38621;52.830;6.914;2023-06-04T06:06:58;13.80;99.90
52725;DHT22;38621;52.830;6.914;2023-06-04T06:09:24;13.90;99.90
52725;DHT22;38621;52.830;6.914;2023-06-04T06:11:49;14.00;99.90
52725;DHT22;38621;52.830;6.914;2023-06-04T06:14:15;14.00;99.90
52725;DHT22;38621;52.830;6.914;2023-06-04T06:16:41;14.10;99.90
52725;DHT22;38621;52.830;6.914;2023-06-04T06:19:06;14.20;99.90
52725;DHT22;38621;52.830;6.914;2023-06-04T06:21:32;14.30;99.90
52725;DHT22;38621;52.830;6.914;2023-06-04T06:23:58;14.40;99.90
52725;DHT22;38621;52.830;6.914;2023-06-04T06:26:24;14.50;99.90
52725;DHT22;38621;52.830;6.914;2023-06-04T06:28:50;14.60;99.90
52725;DHT22;38621;52.830;6.914;2023-06-04T06:31:16;14.70;99.90
52725;DHT22;38621;52.830;6.914;2023-06-04T06:33:42;14.80;99.90
52725;DHT22;38621;52.830;6.914;2023-06-04T06:36:11;14.90;99.90
52725;DHT22;38621;52.830;6.914;2023-06-04T06:38:39;14.90;99.90
52725;DHT22;38621;52.830;6.914;2023-06-04T06:41:06;15.00;99.90
52725;DHT22;38621;52.830;6.914;2023-06-04T06:43:32;15.10;99.90
52725;DHT22;38621;52.830;6.914;2023-06-04T06:45:58;15.30;99.90
52725;DHT22;38621;52.830;6.914;2023-06-04T06:48:24;15.30;99.90
52725;DHT22;38621;52.830;6.914;2023-06-04T06:50:50;15.40;99.90
52725;DHT22;38621;52.830;6.914;2023-06-04T06:53:16;15.50;99.90
52725;DHT22;38621;52.830;6.914;2023-06-04T06:55:41;15.50;99.90
52725;DHT22;38621;52.830;6.914;2023-06-04T06:58:07;15.50;99.90
52725;DHT22;38621;52.830;6.914;2023-06-04T07:00:33;15.60;99.90
52725;DHT22;38621;52.830;6.914;2023-06-04T07:02:58;15.80;99.90
52725;DHT22;38621;52.830;6.914;2023-06-04T07:05:24;15.90;99.90
52725;DHT22;38621;52.830;6.914;2023-06-04T07:07:50;16.00;99.90
52725;DHT22;38621;52.830;6.914;2023-06-04T07:10:15;16.10;99.90
52725;DHT22;38621;52.830;6.914;2023-06-04T07:12:41;16.20;99.90
52725;DHT22;38621;52.830;6.914;2023-06-04T07:15:07;16.30;99.90
52725;DHT22;38621;52.830;6.914;2023-06-04T07:17:34;16.40;99.90
52725;DHT22;38621;52.830;6.914;2023-06-04T07:20:00;16.50;99.90
52725;DHT22;38621;52.830;6.914;2023-06-04T07:22:26;16.70;99.90
52725;DHT22;38621;52.830;6.914;2023-06-04T07:24:52;16.80;99.90
52725;DHT22;38621;52.830;6.914;2023-06-04T07:27:19;16.90;99.90
52725;DHT22;38621;52.830;6.914;2023-06-04T07:29:45;16.90;99.90
52725;DHT22;38621;52.830;6.914;2023-06-04T07:32:11;17.00;99.90
52725;DHT22;38621;52.830;6.914;2023-06-04T07:34:38;17.10;99.90
52725;DHT22;38621;52.830;6.914;2023-06-04T07:37:04;17.20;99.90
52725;DHT22;38621;52.830;6.914;2023-06-04T07:39:29;17.40;99.90
52725;DHT22;38621;52.830;6.914;2023-06-04T07:41:55;17.40;99.90
52725;DHT22;38621;52.830;6.914;2023-06-04T07:44:21;17.50;99.90
52725;DHT22;38621;52.830;6.914;2023-06-04T07:46:47;17.60;99.90
52725;DHT22;38621;52.830;6.914;2023-06-04T07:49:12;17.70;99.90
52725;DHT22;38621;52.830;6.914;2023-06-04T07:51:38;17.80;99.90
52725;DHT22;38621;52.830;6.914;2023-06-04T07:54:04;18.00;99.90
52725;DHT22;38621;52.830;6.914;2023-06-04T07:56:29;18.00;99.90
52725;DHT22;38621;52.830;6.914;2023-06-04T07:58:55;18.10;99.90
52725;DHT22;38621;52.830;6.914;2023-06-04T08:01:21;18.20;99.90
52725;DHT22;38621;52.830;6.914;2023-06-04T08:03:47;18.20;99.90
52725;DHT22;38621;52.830;6.914;2023-06-04T08:06:13;18.30;99.90
52725;DHT22;38621;52.830;6.914;2023-06-04T08:08:45;18.30;99.90
52725;DHT22;38621;52.830;6.914;2023-06-04T08:11:14;18.50;99.90
52725;DHT22;38621;52.830;6.914;2023-06-04T08:13:40;18.60;99.90
52725;DHT22;38621;52.830;6.914;2023-06-04T08:16:06;18.60;99.90
52725;DHT22;38621;52.830;6.914;2023-06-04T08:18:32;18.80;99.90
52725;DHT22;38621;52.830;6.914;2023-06-04T08:20:57;18.80;99.90
52725;DHT22;38621;52.830;6.914;2023-06-04T08:23:23;18.90;99.90
52725;DHT22;38621;52.830;6.914;2023-06-04T08:25:49;19.10;99.90
52725;DHT22;38621;52.830;6.914;2023-06-04T08:28:14;19.10;99.90
52725;DHT22;38621;52.830;6.914;2023-06-04T08:30:44;19.30;99.90
52725;DHT22;38621;52.830;6.914;2023-06-04T08:33:11;19.40;99.90
52725;DHT22;38621;52.830;6.914;2023-06-04T08:35:36;19.40;99.90
52725;DHT22;38621;52.830;6.914;2023-06-04T08:38:02;19.50;99.90
52725;DHT22;38621;52.830;6.914;2023-06-04T08:40:28;19.70;99.90
52725;DHT22;38621;52.830;6.914;2023-06-04T08:42:56;19.80;99.90
52725;DHT22;38621;52.830;6.914;2023-06-04T08:45:24;19.80;99.90
52725;DHT22;38621;52.830;6.914;2023-06-04T08:47:54;19.90;99.90
52725;DHT22;38621;52.830;6.914;2023-06-04T08:50:22;19.90;99.90
52725;DHT22;38621;52.830;6.914;2023-06-04T08:52:55;19.90;99.90
52725;DHT22;38621;52.830;6.914;2023-06-04T08:55:22;20.00;99.90
52725;DHT22;38621;52.830;6.914;2023-06-04T08:57:49;20.10;99.90
52725;DHT22;38621;52.830;6.914;2023-06-04T09:00:17;20.20;99.90
52725;DHT22;38621;52.830;6.914;2023-06-04T09:02:45;20.20;99.90
52725;DHT22;38621;52.830;6.914;2023-06-04T09:05:20;20.00;99.90
52725;DHT22;38621;52.830;6.914;2023-06-04T09:07:47;20.10;99.90
52725;DHT22;38621;52.830;6.914;2023-06-04T09:10:17;20.20;99.90
52725;DHT22;38621;52.830;6.914;2023-06-04T09:12:46;20.40;99.90
52725;DHT22;38621;52.830;6.914;2023-06-04T09:15:12;20.60;99.90
52725;DHT22;38621;52.830;6.914;2023-06-04T09:17:38;20.70;99.90
52725;DHT22;38621;52.830;6.914;2023-06-04T09:20:04;20.60;99.90
52725;DHT22;38621;52.830;6.914;2023-06-04T09:22:34;20.70;99.90
52725;DHT22;38621;52.830;6.914;2023-06-04T09:25:05;20.90;99.90
52725;DHT22;38621;52.830;6.914;2023-06-04T09:27:39;21.10;99.90
52725;DHT22;38621;52.830;6.914;2023-06-04T09:30:06;21.30;99.90
52725;DHT22;38621;52.830;6.914;2023-06-04T09:32:34;21.40;99.90
52725;DHT22;38621;52.830;6.914;2023-06-04T09:35:13;21.50;99.90
52725;DHT22;38621;52.830;6.914;2023-06-04T09:37:43;21.50;99.90
52725;DHT22;38621;52.830;6.914;2023-06-04T09:40:16;21.60;99.90
52725;DHT22;38621;52.830;6.914;2023-06-04T09:42:47;21.70;99.90
52725;DHT22;38621;52.830;6.914;2023-06-04T09:45:32;21.90;99.90
52725;DHT22;38621;52.830;6.914;2023-06-04T09:47:59;22.00;99.90
52725;DHT22;38621;52.830;6.914;2023-06-04T09:50:26;22.10;99.90
52725;DHT22;38621;52.830;6.914;2023-06-04T09:52:53;22.10;99.90
52725;DHT22;38621;52.830;6.914;2023-06-04T09:55:19;22.20;99.90
52725;DHT22;38621;52.830;6.914;2023-06-04T09:57:50;22.20;99.90
52725;DHT22;38621;52.830;6.914;2023-06-04T10:00:18;22.30;99.90
52725;DHT22;38621;52.830;6.914;2023-06-04T10:02:47;22.30;99.90
52725;DHT22;38621;52.830;6.914;2023-06-04T10:05:14;22.50;99.90
52725;DHT22;38621;52.830;6.914;2023-06-04T10:07:43;22.60;99.90
52725;DHT22;38621;52.830;6.914;2023-06-04T10:10:15;22.70;99.90
52725;DHT22;38621;52.830;6.914;2023-06-04T10:12:42;22.90;99.90
52725;DHT22;38621;52.830;6.914;2023-06-04T10:15:11;23.00;99.90
52725;DHT22;38621;52.830;6.914;2023-06-04T10:17:38;23.10;99.90
52725;DHT22;38621;52.830;6.914;2023-06-04T10:20:06;23.30;99.90
52725;DHT22;38621;52.830;6.914;2023-06-04T10:22:37;23.40;99.90
52725;DHT22;38621;52.830;6.914;2023-06-04T10:25:03;23.40;99.90
52725;DHT22;38621;52.830;6.914;2023-06-04T10:27:33;23.40;99.90
52725;DHT22;38621;52.830;6.914;2023-06-04T10:30:02;23.30;99.90
52725;DHT22;38621;52.830;6.914;2023-06-04T10:32:29;23.10;99.90
52725;DHT22;38621;52.830;6.914;2023-06-04T10:34:55;23.20;99.90
52725;DHT22;38621;52.830;6.914;2023-06-04T10:37:24;23.20;99.90
52725;DHT22;38621;52.830;6.914;2023-06-04T10:39:59;23.40;99.90
52725;DHT22;38621;52.830;6.914;2023-06-04T10:42:25;23.50;99.90
52725;DHT22;38621;52.830;6.914;2023-06-04T10:44:55;23.40;99.90
52725;DHT22;38621;52.830;6.914;2023-06-04T10:47:25;23.40;99.90
52725;DHT22;38621;52.830;6.914;2023-06-04T10:49:52;23.40;99.90
52725;DHT22;38621;52.830;6.914;2023-06-04T10:52:18;23.40;99.90
52725;DHT22;38621;52.830;6.914;2023-06-04T10:54:45;23.60;99.90
52725;DHT22;38621;52.830;6.914;2023-06-04T10:57:15;23.90;99.90
52725;DHT22;38621;52.830;6.914;2023-06-04T10:59:56;24.20;99.90
52725;DHT22;38621;52.830;6.914;2023-06-04T11:02:22;24.30;99.90
52725;DHT22;38621;52.830;6.914;2023-06-04T11:04:59;24.40;99.90
52725;DHT22;38621;52.830;6.914;2023-06-04T11:07:27;24.50;99.90
52725;DHT22;38621;52.830;6.914;2023-06-04T11:09:53;24.50;99.90
52725;DHT22;38621;52.830;6.914;2023-06-04T11:12:19;24.50;99.90
52725;DHT22;38621;52.830;6.914;2023-06-04T11:14:55;24.60;99.90
52725;DHT22;38621;52.830;6.914;2023-06-04T11:17:21;24.70;99.90
52725;DHT22;38621;52.830;6.914;2023-06-04T11:19:46;24.80;99.90
52725;DHT22;38621;52.830;6.914;2023-06-04T11:22:12;24.80;99.90
52725;DHT22;38621;52.830;6.914;2023-06-04T11:24:38;24.90;99.90
52725;DHT22;38621;52.830;6.914;2023-06-04T11:27:03;24.90;99.90
52725;DHT22;38621;52.830;6.914;2023-06-04T11:29:29;25.10;99.90
52725;DHT22;38621;52.830;6.914;2023-06-04T11:31:55;25.30;99.90
52725;DHT22;38621;52.830;6.914;2023-06-04T11:34:29;25.30;99.90
52725;DHT22;38621;52.830;6.914;2023-06-04T11:36:55;25.30;99.90
52725;DHT22;38621;52.830;6.914;2023-06-04T11:39:22;25.40;99.90
52725;DHT22;38621;52.830;6.914;2023-06-04T11:41:50;25.40;99.90
52725;DHT22;38621;52.830;6.914;2023-06-04T11:44:19;25.50;99.90
52725;DHT22;38621;52.830;6.914;2023-06-04T11:46:45;25.50;99.90
52725;DHT22;38621;52.830;6.914;2023-06-04T11:49:17;25.40;99.90
52725;DHT22;38621;52.830;6.914;2023-06-04T11:51:51;25.30;99.90
52725;DHT22;38621;52.830;6.914;2023-06-04T11:54:17;25.20;99.90
52725;DHT22;38621;52.830;6.914;2023-06-04T11:56:44;25.30;99.90
52725;DHT22;38621;52.830;6.914;2023-06-04T11:59:14;25.30;99.90
52725;DHT22;38621;52.830;6.914;2023-06-04T12:01:42;25.30;99.90
52725;DHT22;38621;52.830;6.914;2023-06-04T12:04:19;25.60;99.90
52725;DHT22;38621;52.830;6.914;2023-06-04T12:06:56;25.80;99.90
52725;DHT22;38621;52.830;6.914;2023-06-04T12:09:30;26.00;99.90
52725;DHT22;38621;52.830;6.914;2023-06-04T12:11:58;26.10;99.90
52725;DHT22;38621;52.830;6.914;2023-06-04T12:14:29;26.20;99.90
52725;DHT22;38621;52.830;6.914;2023-06-04T12:16:59;26.30;99.90
52725;DHT22;38621;52.830;6.914;2023-06-04T12:19:26;26.40;99.90
52725;DHT22;38621;52.830;6.914;2023-06-04T12:22:06;26.50;99.90
52725;DHT22;38621;52.830;6.914;2023-06-04T12:24:34;26.60;99.90
52725;DHT22;38621;52.830;6.914;2023-06-04T12:29:28;26.50;99.90
52725;DHT22;38621;52.830;6.914;2023-06-04T12:32:10;26.60;99.90
52725;DHT22;38621;52.830;6.914;2023-06-04T12:34:40;26.50;98.80
52725;DHT22;38621;52.830;6.914;2023-06-04T12:37:07;26.40;99.40
52725;DHT22;38621;52.830;6.914;2023-06-04T12:39:33;26.30;99.10
52725;DHT22;38621;52.830;6.914;2023-06-04T12:41:59;26.40;99.30
52725;DHT22;38621;52.830;6.914;2023-06-04T12:44:25;26.60;99.50
52725;DHT22;38621;52.830;6.914;2023-06-04T12:46:51;26.60;99.00
52725;DHT22;38621;52.830;6.914;2023-06-04T12:49:17;26.70;99.00
52725;DHT22;38621;52.830;6.914;2023-06-04T12:51:43;26.80;98.40
52725;DHT22;38621;52.830;6.914;2023-06-04T12:54:09;27.00;98.00
52725;DHT22;38621;52.830;6.914;2023-06-04T12:56:35;27.00;98.00
52725;DHT22;38621;52.830;6.914;2023-06-04T12:59:01;27.20;98.60
52725;DHT22;38621;52.830;6.914;2023-06-04T13:01:27;27.40;98.30
52725;DHT22;38621;52.830;6.914;2023-06-04T13:03:53;27.40;97.80
52725;DHT22;38621;52.830;6.914;2023-06-04T13:06:19;27.40;97.60
52725;DHT22;38621;52.830;6.914;2023-06-04T13:08:44;27.30;97.20
52725;DHT22;38621;52.830;6.914;2023-06-04T13:11:10;27.00;97.00
52725;DHT22;38621;52.830;6.914;2023-06-04T13:13:37;26.70;97.30
52725;DHT22;38621;52.830;6.914;2023-06-04T13:16:03;26.60;97.50
52725;DHT22;38621;52.830;6.914;2023-06-04T13:18:29;26.50;97.00
52725;DHT22;38621;52.830;6.914;2023-06-04T13:20:55;26.30;96.70
52725;DHT22;38621;52.830;6.914;2023-06-04T13:23:22;26.30;97.00
52725;DHT22;38621;52.830;6.914;2023-06-04T13:25:48;26.60;96.70
52725;DHT22;38621;52.830;6.914;2023-06-04T13:28:13;26.80;96.50
52725;DHT22;38621;52.830;6.914;2023-06-04T13:30:39;26.90;96.50
52725;DHT22;38621;52.830;6.914;2023-06-04T13:33:06;27.10;96.80
52725;DHT22;38621;52.830;6.914;2023-06-04T13:35:31;27.50;97.40
52725;DHT22;38621;52.830;6.914;2023-06-04T13:37:57;27.90;97.20
52725;DHT22;38621;52.830;6.914;2023-06-04T13:40:23;28.10;96.70
52725;DHT22;38621;52.830;6.914;2023-06-04T13:42:49;28.20;96.20
52725;DHT22;38621;52.830;6.914;2023-06-04T13:45:15;28.20;96.20
52725;DHT22;38621;52.830;6.914;2023-06-04T13:47:42;28.30;96.40
52725;DHT22;38621;52.830;6.914;2023-06-04T13:50:08;28.50;96.00
52725;DHT22;38621;52.830;6.914;2023-06-04T13:52:34;28.50;95.90
52725;DHT22;38621;52.830;6.914;2023-06-04T13:55:00;28.70;96.20
52725;DHT22;38621;52.830;6.914;2023-06-04T13:57:27;28.70;96.30
52725;DHT22;38621;52.830;6.914;2023-06-04T13:59:53;28.60;96.00
52725;DHT22;38621;52.830;6.914;2023-06-04T14:02:19;28.10;96.00
52725;DHT22;38621;52.830;6.914;2023-06-04T14:04:44;27.70;95.80
52725;DHT22;38621;52.830;6.914;2023-06-04T14:07:10;27.30;95.30
52725;DHT22;38621;52.830;6.914;2023-06-04T14:09:36;27.00;95.10
52725;DHT22;38621;52.830;6.914;2023-06-04T14:12:02;26.70;94.80
52725;DHT22;38621;52.830;6.914;2023-06-04T14:14:28;26.50;95.00
52725;DHT22;38621;52.830;6.914;2023-06-04T14:17:02;26.30;94.90
52725;DHT22;38621;52.830;6.914;2023-06-04T14:19:28;26.10;94.90
52725;DHT22;38621;52.830;6.914;2023-06-04T14:21:53;25.80;94.90
52725;DHT22;38621;52.830;6.914;2023-06-04T14:24:19;25.70;95.00
52725;DHT22;38621;52.830;6.914;2023-06-04T14:26:45;25.70;94.80
52725;DHT22;38621;52.830;6.914;2023-06-04T14:29:11;25.50;94.80
52725;DHT22;38621;52.830;6.914;2023-06-04T14:31:37;25.50;95.60
52725;DHT22;38621;52.830;6.914;2023-06-04T14:34:03;25.60;95.80
52725;DHT22;38621;52.830;6.914;2023-06-04T14:36:29;25.60;95.70
52725;DHT22;38621;52.830;6.914;2023-06-04T14:38:55;25.50;95.50
52725;DHT22;38621;52.830;6.914;2023-06-04T14:41:20;25.60;95.70
52725;DHT22;38621;52.830;6.914;2023-06-04T14:43:46;26.00;96.30
52725;DHT22;38621;52.830;6.914;2023-06-04T14:46:12;26.70;96.20
52725;DHT22;38621;52.830;6.914;2023-06-04T14:48:37;27.50;96.10
52725;DHT22;38621;52.830;6.914;2023-06-04T14:51:03;28.10;96.30
52725;DHT22;38621;52.830;6.914;2023-06-04T14:53:29;28.70;96.90
52725;DHT22;38621;52.830;6.914;2023-06-04T14:55:55;29.00;97.00
52725;DHT22;38621;52.830;6.914;2023-06-04T14:58:21;29.40;96.50
52725;DHT22;38621;52.830;6.914;2023-06-04T15:00:46;29.30;96.30
52725;DHT22;38621;52.830;6.914;2023-06-04T15:03:12;29.10;96.50
52725;DHT22;38621;52.830;6.914;2023-06-04T15:05:38;29.10;96.80
52725;DHT22;38621;52.830;6.914;2023-06-04T15:08:03;29.40;97.20
52725;DHT22;38621;52.830;6.914;2023-06-04T15:10:30;29.70;97.10
52725;DHT22;38621;52.830;6.914;2023-06-04T15:12:56;29.90;97.00
52725;DHT22;38621;52.830;6.914;2023-06-04T15:15:22;29.80;96.70
52725;DHT22;38621;52.830;6.914;2023-06-04T15:17:49;29.70;96.60
52725;DHT22;38621;52.830;6.914;2023-06-04T15:20:15;29.60;96.60
52725;DHT22;38621;52.830;6.914;2023-06-04T15:22:41;29.50;96.50
52725;DHT22;38621;52.830;6.914;2023-06-04T15:25:07;29.50;96.60
52725;DHT22;38621;52.830;6.914;2023-06-04T15:27:33;29.50;96.60
52725;DHT22;38621;52.830;6.914;2023-06-04T15:29:59;29.40;96.50
52725;DHT22;38621;52.830;6.914;2023-06-04T15:32:25;29.40;96.40
52725;DHT22;38621;52.830;6.914;2023-06-04T15:34:51;29.70;96.50
52725;DHT22;38621;52.830;6.914;2023-06-04T15:37:17;29.80;96.50
52725;DHT22;38621;52.830;6.914;2023-06-04T15:39:42;29.80;96.30